Time,TemperatureF,DewpointF,PressureIn,WindDirection,WindDirectionDegrees,WindSpeedMPH,WindSpeedGustMPH,Humidity,HourlyPrecipIn,Conditions,Clouds,dailyrainin,SolarRadiationWatts/m^2,SoftwareType,DateUTC
2016-07-30 00:03:00,60.1,54.2,29.78,West,275,3.5,3.5,81,0.00,CLR,,0.00,0.0,WeatherDisplay:10.37,2016-07-30 07:03:00,
2016-07-30 00:08:00,60.1,54.2,29.78,WNW,288,3.5,3.5,81,0.00,CLR,,0.00,0.0,WeatherDisplay:10.37,2016-07-30 07:08:00,
2016-07-30 00:13:00,59.9,54.1,29.78,West,278,2.3,2.3,81,0.00,CLR,,0.00,0.0,WeatherDisplay:10.37,2016-07-30 07:13:00,
2016-07-30 00:18:00,59.9,54.1,29.78,West,278,3.5,3.5,81,0.00,CLR,,0.00,0.0,WeatherDisplay:10.37,2016-07-30 07:18:00,
2016-07-30 00:23:00,59.9,54.1,29.78,West,278,2.3,2.3,81,0.00,CLR,,0.00,0.0,WeatherDisplay:10.37,2016-07-30 07:23:00,
2016-07-30 00:28:00,59.9,54.1,29.78,West,278,1.2,1.2,81,0.00,CLR,,0.00,0.0,WeatherDisplay:10.37,2016-07-30 07:28:00,
2016-07-30 00:33:00,59.9,54.1,29.78,West,278,1.2,1.2,81,0.00,CLR,,0.00,0.0,WeatherDisplay:10.37,2016-07-30 07:33:00,
2016-07-30 00:38:00,59.8,54.0,29.78,West,278,2.3,2.3,81,0.00,CLR,,0.00,0.0,WeatherDisplay:10.37,2016-07-30 07:38:00,
2016-07-30 00:43:00,59.8,54.0,29.78,West,279,2.3,2.3,81,0.00,CLR,,0.00,0.0,WeatherDisplay:10.37,2016-07-30 07:43:00,
2016-07-30 00:48:00,59.8,54.0,29.78,West,279,1.2,1.2,81,0.00,CLR,,0.00,0.0,WeatherDisplay:10.37,2016-07-30 07:48:00,
2016-07-30 00:53:00,59.6,53.8,29.78,West,279,1.2,1.2,81,0.00,CLR,,0.00,0.0,WeatherDisplay:10.37,2016-07-30 07:53:00,
2016-07-30 00:58:00,59.6,54.1,29.78,West,279,2.3,2.3,82,0.00,CLR,,0.00,0.0,WeatherDisplay:10.37,2016-07-30 07:58:00,
2016-07-30 01:03:00,59.6,54.1,29.77,West,279,2.3,2.3,82,0.00,CLR,,0.00,0.0,WeatherDisplay:10.37,2016-07-30 08:03:00,
2016-07-30 01:08:00,59.5,54.0,29.77,West,279,1.2,1.2,82,0.00,CLR,,0.00,0.0,WeatherDisplay:10.37,2016-07-30 08:08:00,
2016-07-30 01:13:00,59.5,54.0,29.77,West,279,2.3,2.3,82,0.00,CLR,,0.00,0.0,WeatherDisplay:10.37,2016-07-30 08:13:00,
2016-07-30 01:18:00,59.5,54.0,29.77,West,279,2.3,2.3,82,0.00,CLR,,0.00,0.0,WeatherDisplay:10.37,2016-07-30 08:18:00,
2016-07-30 01:23:00,59.5,54.0,29.77,West,279,1.2,1.2,82,0.00,CLR,,0.00,0.0,WeatherDisplay:10.37,2016-07-30 08:23:00,
2016-07-30 01:28:00,59.3,53.8,29.77,WNW,292,3.5,3.5,82,0.00,CLR,,0.00,0.0,WeatherDisplay:10.37,2016-07-30 08:28:00,
2016-07-30 01:33:00,59.3,53.8,29.78,WNW,292,2.3,2.3,82,0.00,CLR,,0.00,0.0,WeatherDisplay:10.37,2016-07-30 08:33:00,
2016-07-30 01:38:00,59.3,53.8,29.78,WNW,292,2.3,2.3,82,0.00,CLR,,0.00,0.0,WeatherDisplay:10.37,2016-07-30 08:38:00,
2016-07-30 01:43:00,59.3,53.8,29.78,WNW,292,1.2,1.2,82,0.00,CLR,,0.00,0.0,WeatherDisplay:10.37,2016-07-30 08:43:00,
2016-07-30 01:48:00,59.2,54.0,29.77,WNW,292,1.2,1.2,83,0.00,CLR,,0.00,0.0,WeatherDisplay:10.37,2016-07-30 08:48:00,
2016-07-30 01:53:00,59.2,54.0,29.77,WNW,292,2.3,2.3,83,0.00,CLR,,0.00,0.0,WeatherDisplay:10.37,2016-07-30 08:53:00,
2016-07-30 01:58:00,59.2,54.0,29.77,WNW,302,2.3,2.3,83,0.00,CLR,,0.00,0.0,WeatherDisplay:10.37,2016-07-30 08:58:00,
2016-07-30 02:03:00,59.0,53.8,29.77,WNW,302,1.2,1.2,83,0.00,CLR,,0.00,0.0,WeatherDisplay:10.37,2016-07-30 09:03:00,
2016-07-30 02:09:00,59.2,54.0,29.77,WNW,300,1.2,1.2,83,0.00,CLR,,0.00,0.0,WeatherDisplay:10.37,2016-07-30 09:09:00,
2016-07-30 02:14:00,59.0,53.8,29.77,NW,323,2.3,2.3,83,0.00,CLR,,0.00,0.0,WeatherDisplay:10.37,2016-07-30 09:14:00,
2016-07-30 02:19:00,59.0,54.2,29.77,NW,315,3.5,3.5,84,0.00,CLR,,0.00,0.0,WeatherDisplay:10.37,2016-07-30 09:19:00,
2016-07-30 02:24:00,59.0,54.2,29.77,NW,311,2.3,2.3,84,0.00,CLR,,0.00,0.0,WeatherDisplay:10.37,2016-07-30 09:24:00,
2016-07-30 02:29:00,58.9,54.1,29.77,WNW,295,2.3,2.3,84,0.00,CLR,,0.00,0.0,WeatherDisplay:10.37,2016-07-30 09:29:00,
2016-07-30 02:34:00,58.7,54.2,29.77,NW,320,2.3,2.3,85,0.00,CLR,,0.00,0.0,WeatherDisplay:10.37,2016-07-30 09:34:00,
2016-07-30 02:39:00,58.7,54.2,29.77,NW,320,1.2,1.3,85,0.00,CLR,,0.00,0.0,WeatherDisplay:10.37,2016-07-30 09:39:00,
2016-07-30 02:44:00,58.6,54.1,29.77,NW,321,3.5,3.5,85,0.00,CLR,,0.00,0.0,WeatherDisplay:10.37,2016-07-30 09:44:00,
2016-07-30 02:49:00,58.6,54.1,29.77,NW,323,2.3,2.3,85,0.00,CLR,,0.00,0.0,WeatherDisplay:10.37,2016-07-30 09:49:00,
2016-07-30 02:54:00,58.4,53.9,29.77,WNW,300,2.3,2.3,85,0.00,CLR,,0.00,0.0,WeatherDisplay:10.37,2016-07-30 09:54:00,
2016-07-30 02:59:00,58.3,53.8,29.77,West,279,2.3,2.3,85,0.00,CLR,,0.00,0.0,WeatherDisplay:10.37,2016-07-30 09:59:00,
2016-07-30 03:04:00,58.3,53.8,29.76,West,280,2.3,2.3,85,0.00,CLR,,0.00,0.0,WeatherDisplay:10.37,2016-07-30 10:04:00,
2016-07-30 03:09:00,58.1,53.6,29.76,WNW,292,2.3,2.3,85,0.00,CLR,,0.00,0.0,WeatherDisplay:10.37,2016-07-30 10:09:00,
2016-07-30 03:14:00,58.1,53.9,29.76,WNW,292,1.2,1.2,86,0.00,CLR,,0.00,0.0,WeatherDisplay:10.37,2016-07-30 10:14:00,
2016-07-30 03:19:00,58.0,53.8,29.76,WNW,286,3.5,3.5,86,0.00,CLR,,0.00,0.0,WeatherDisplay:10.37,2016-07-30 10:19:00,
2016-07-30 03:24:00,58.0,53.8,29.76,WNW,298,3.5,3.5,86,0.00,CLR,,0.00,0.0,WeatherDisplay:10.37,2016-07-30 10:24:00,
2016-07-30 03:29:00,58.0,53.8,29.76,West,275,2.3,2.3,86,0.00,CLR,,0.00,0.0,WeatherDisplay:10.37,2016-07-30 10:29:00,
2016-07-30 03:34:00,57.8,53.6,29.76,West,276,3.5,3.5,86,0.00,SCT,,0.00,0.0,WeatherDisplay:10.37,2016-07-30 10:34:00,
2016-07-30 03:39:00,57.8,54.0,29.76,West,279,1.2,1.2,87,0.00,SCT,,0.00,0.0,WeatherDisplay:10.37,2016-07-30 10:39:00,
2016-07-30 03:44:00,57.6,53.8,29.76,WNW,285,2.3,2.3,87,0.00,SCT,,0.00,0.0,WeatherDisplay:10.37,2016-07-30 10:44:00,
2016-07-30 03:49:00,57.6,53.8,29.76,WNW,299,2.3,2.3,87,0.00,SCT,,0.00,0.0,WeatherDisplay:10.37,2016-07-30 10:49:00,
2016-07-30 03:54:00,57.6,53.8,29.76,NW,309,3.5,3.5,87,0.00,BKN,,0.00,0.0,WeatherDisplay:10.37,2016-07-30 10:54:00,
2016-07-30 03:59:00,57.5,53.7,29.76,West,277,3.5,3.5,87,0.00,BKN,,0.00,0.0,WeatherDisplay:10.37,2016-07-30 10:59:00,
2016-07-30 04:04:00,57.5,53.7,29.76,WNW,300,2.3,2.3,87,0.00,BKN,,0.00,0.0,WeatherDisplay:10.37,2016-07-30 11:04:00,
2016-07-30 04:09:00,57.5,53.7,29.76,WNW,300,2.3,2.3,87,0.00,BKN,,0.00,0.0,WeatherDisplay:10.37,2016-07-30 11:09:00,
2016-07-30 04:14:00,57.5,54.0,29.76,WNW,286,3.5,3.5,88,0.00,OVC,,0.00,0.0,WeatherDisplay:10.37,2016-07-30 11:14:00,
2016-07-30 04:19:00,57.5,54.0,29.76,WNW,286,2.3,2.3,88,0.00,OVC,,0.00,0.0,WeatherDisplay:10.37,2016-07-30 11:19:00,
2016-07-30 04:24:00,57.5,54.0,29.76,WNW,295,3.5,3.5,88,0.00,OVC,,0.00,0.0,WeatherDisplay:10.37,2016-07-30 11:24:00,
2016-07-30 04:29:00,57.5,54.0,29.76,West,271,3.5,3.5,88,0.00,OVC,,0.00,0.0,WeatherDisplay:10.37,2016-07-30 11:29:00,
2016-07-30 04:34:00,57.5,54.0,29.76,North,350,2.3,2.3,88,0.00,OVC,,0.00,0.0,WeatherDisplay:10.37,2016-07-30 11:34:00,
2016-07-30 04:39:00,57.5,54.3,29.76,WNW,285,3.5,3.5,89,0.00,OVC,,0.00,0.0,WeatherDisplay:10.37,2016-07-30 11:39:00,
2016-07-30 04:44:00,57.5,54.3,29.76,NW,309,3.5,3.5,89,0.00,OVC,,0.00,0.0,WeatherDisplay:10.37,2016-07-30 11:44:00,
2016-07-30 04:49:00,57.3,54.1,29.76,WNW,302,3.5,3.5,89,0.00,OVC,,0.00,0.0,WeatherDisplay:10.37,2016-07-30 11:49:00,
2016-07-30 04:54:00,57.3,54.1,29.76,NNW,345,1.2,1.2,89,0.00,OVC,,0.00,0.0,WeatherDisplay:10.37,2016-07-30 11:54:00,
2016-07-30 04:59:00,57.3,54.1,29.76,WNW,288,3.5,3.5,89,0.00,OVC,,0.00,0.0,WeatherDisplay:10.37,2016-07-30 11:59:00,
2016-07-30 05:04:00,57.3,54.1,29.76,NNW,334,3.5,3.5,89,0.00,OVC,,0.00,0.0,WeatherDisplay:10.37,2016-07-30 12:04:00,
2016-07-30 05:09:00,57.3,54.1,29.76,NW,320,2.3,2.3,89,0.00,OVC,,0.00,0.0,WeatherDisplay:10.37,2016-07-30 12:09:00,
2016-07-30 05:14:00,57.3,54.1,29.76,NNW,336,1.2,1.2,89,0.00,OVC,,0.00,0.0,WeatherDisplay:10.37,2016-07-30 12:14:00,
2016-07-30 05:19:00,57.3,54.4,29.76,WNW,284,2.3,2.3,90,0.00,OVC,,0.00,0.0,WeatherDisplay:10.37,2016-07-30 12:19:00,
2016-07-30 05:24:00,57.3,54.4,29.76,WNW,285,1.2,1.2,90,0.00,OVC,,0.00,0.0,WeatherDisplay:10.37,2016-07-30 12:24:00,
2016-07-30 05:29:00,57.3,54.4,29.76,WNW,285,2.3,2.3,90,0.00,OVC,,0.00,0.0,WeatherDisplay:10.37,2016-07-30 12:29:00,
2016-07-30 05:34:00,57.5,54.6,29.76,NW,310,2.3,2.3,90,0.00,OVC,,0.00,0.0,WeatherDisplay:10.37,2016-07-30 12:34:00,
2016-07-30 05:39:00,57.5,54.6,29.76,WNW,298,2.3,2.3,90,0.00,OVC,,0.00,0.0,WeatherDisplay:10.37,2016-07-30 12:39:00,
2016-07-30 05:44:00,57.5,54.6,29.76,NW,311,3.5,3.5,90,0.00,OVC,,0.00,0.0,WeatherDisplay:10.37,2016-07-30 12:44:00,
2016-07-30 05:49:00,57.5,54.6,29.77,NNW,333,3.5,3.5,90,0.00,OVC,,0.00,0.0,WeatherDisplay:10.37,2016-07-30 12:49:00,
2016-07-30 05:54:00,57.3,54.4,29.77,WNW,303,1.2,1.2,90,0.00,OVC,,0.00,0.0,WeatherDisplay:10.37,2016-07-30 12:54:00,
2016-07-30 05:59:00,57.3,54.4,29.77,NNW,341,2.3,2.3,90,0.00,OVC,,0.00,0.0,WeatherDisplay:10.37,2016-07-30 12:59:00,
2016-07-30 06:04:00,57.2,54.3,29.77,NNW,341,2.3,2.3,90,0.00,OVC,,0.00,0.0,WeatherDisplay:10.37,2016-07-30 13:04:00,
2016-07-30 06:09:00,57.2,54.3,29.77,NNW,334,3.5,3.5,90,0.00,OVC,,0.00,0.0,WeatherDisplay:10.37,2016-07-30 13:09:00,
2016-07-30 06:14:00,57.0,54.1,29.77,NNW,341,3.5,3.5,90,0.00,OVC,,0.00,0.0,WeatherDisplay:10.37,2016-07-30 13:14:00,
2016-07-30 06:19:00,56.9,54.0,29.77,NNW,341,0.0,0.0,90,0.00,OVC,,0.00,0.0,WeatherDisplay:10.37,2016-07-30 13:19:00,
2016-07-30 06:29:00,57.0,54.1,29.77,NNW,345,1.2,1.2,90,0.00,OVC,,0.00,11.0,WeatherDisplay:10.37,2016-07-30 13:29:00,
2016-07-30 06:34:00,57.0,54.1,29.78,NNW,345,1.2,0.0,90,0.00,OVC,,0.00,12.0,WeatherDisplay:10.37,2016-07-30 13:34:00,
2016-07-30 06:39:00,57.0,54.1,29.78,NNW,345,1.2,1.2,90,0.00,OVC,,0.00,16.0,WeatherDisplay:10.37,2016-07-30 13:39:00,
2016-07-30 06:44:00,57.0,54.1,29.78,NNW,345,1.2,1.2,90,0.00,OVC,,0.00,19.0,WeatherDisplay:10.37,2016-07-30 13:44:00,
2016-07-30 06:49:00,57.0,54.1,29.78,NNW,345,2.3,2.3,90,0.00,OVC,,0.00,26.0,WeatherDisplay:10.37,2016-07-30 13:49:00,
2016-07-30 06:54:00,57.0,54.1,29.78,North,5,2.3,2.3,90,0.00,OVC,,0.00,35.0,WeatherDisplay:10.37,2016-07-30 13:54:00,
2016-07-30 06:59:00,57.2,54.3,29.78,North,5,2.3,2.3,90,0.00,OVC,,0.00,42.0,WeatherDisplay:10.37,2016-07-30 13:59:00,
2016-07-30 07:04:00,57.3,54.4,29.78,North,5,1.2,1.2,90,0.00,OVC,,0.00,44.0,WeatherDisplay:10.37,2016-07-30 14:04:00,
2016-07-30 07:09:00,57.5,54.6,29.78,North,5,1.2,1.2,90,0.00,OVC,,0.00,49.0,WeatherDisplay:10.37,2016-07-30 14:09:00,
2016-07-30 07:14:00,57.5,54.6,29.78,NW,323,2.3,2.3,90,0.00,OVC,,0.00,54.0,WeatherDisplay:10.37,2016-07-30 14:14:00,
2016-07-30 07:19:00,57.5,54.6,29.79,NW,323,0.0,0.1,90,0.00,OVC,,0.00,65.0,WeatherDisplay:10.37,2016-07-30 14:19:00,
2016-07-30 07:24:00,57.5,54.6,29.79,NW,323,0.0,0.1,90,0.00,OVC,,0.00,76.0,WeatherDisplay:10.37,2016-07-30 14:24:00,
2016-07-30 07:29:00,57.6,54.7,29.79,NW,323,1.2,1.2,90,0.00,OVC,,0.00,90.0,WeatherDisplay:10.37,2016-07-30 14:29:00,
2016-07-30 07:34:00,57.8,54.9,29.79,NW,323,1.2,1.2,90,0.00,OVC,,0.00,104.0,WeatherDisplay:10.37,2016-07-30 14:34:00,
2016-07-30 07:39:00,57.8,54.9,29.79,NW,323,1.2,0.0,90,0.00,OVC,,0.00,105.0,WeatherDisplay:10.37,2016-07-30 14:39:00,
2016-07-30 07:44:00,58.1,55.2,29.79,NW,323,1.2,1.2,90,0.00,OVC,,0.00,118.0,WeatherDisplay:10.37,2016-07-30 14:44:00,
2016-07-30 07:49:00,58.3,55.4,29.79,NNW,327,0.0,0.0,90,0.00,OVC,,0.00,127.0,WeatherDisplay:10.37,2016-07-30 14:49:00,
2016-07-30 07:54:00,58.3,55.4,29.79,NW,311,2.3,2.3,90,0.00,OVC,,0.00,130.0,WeatherDisplay:10.37,2016-07-30 14:54:00,
2016-07-30 07:59:00,58.3,55.4,29.79,WNW,290,2.3,2.3,90,0.00,OVC,,0.00,120.0,WeatherDisplay:10.37,2016-07-30 14:59:00,
2016-07-30 08:04:00,58.3,55.4,29.79,WNW,290,2.3,2.3,90,0.00,OVC,,0.00,132.0,WeatherDisplay:10.37,2016-07-30 15:04:00,
2016-07-30 08:09:00,58.3,55.1,29.79,WNW,290,2.3,2.3,89,0.00,OVC,,0.00,146.0,WeatherDisplay:10.37,2016-07-30 15:09:00,
2016-07-30 08:14:00,58.4,55.2,29.79,WNW,289,2.3,2.3,89,0.00,OVC,,0.00,155.0,WeatherDisplay:10.37,2016-07-30 15:14:00,
2016-07-30 08:19:00,58.6,55.4,29.80,WNW,287,2.3,2.3,89,0.00,OVC,,0.00,163.0,WeatherDisplay:10.37,2016-07-30 15:19:00,
2016-07-30 08:24:00,58.7,55.2,29.80,WSW,250,3.5,3.5,88,0.00,OVC,,0.00,197.0,WeatherDisplay:10.37,2016-07-30 15:24:00,
2016-07-30 08:29:00,58.9,55.4,29.80,WSW,250,1.2,1.2,88,0.00,OVC,,0.00,227.0,WeatherDisplay:10.37,2016-07-30 15:29:00,
2016-07-30 08:34:00,59.3,55.7,29.80,WNW,301,2.3,2.3,88,0.00,OVC,,0.00,253.0,WeatherDisplay:10.37,2016-07-30 15:34:00,
2016-07-30 08:39:00,59.3,55.4,29.80,WNW,297,2.3,2.3,87,0.00,OVC,,0.00,276.0,WeatherDisplay:10.37,2016-07-30 15:39:00,
2016-07-30 08:44:00,59.3,55.4,29.80,WNW,290,3.5,3.5,87,0.00,OVC,,0.00,288.0,WeatherDisplay:10.37,2016-07-30 15:44:00,
2016-07-30 08:49:00,59.5,55.3,29.80,WNW,290,2.3,2.3,86,0.00,OVC,,0.00,327.0,WeatherDisplay:10.37,2016-07-30 15:49:00,
2016-07-30 08:54:00,59.9,55.7,29.80,SE,134,3.5,3.5,86,0.00,OVC,,0.00,308.0,WeatherDisplay:10.37,2016-07-30 15:54:00,
2016-07-30 08:59:00,60.4,56.2,29.80,SE,141,2.3,2.3,86,0.00,OVC,,0.00,533.0,WeatherDisplay:10.37,2016-07-30 15:59:00,
2016-07-30 09:04:00,60.7,56.2,29.80,West,277,3.5,3.5,85,0.00,OVC,,0.00,524.0,WeatherDisplay:10.37,2016-07-30 16:04:00,
2016-07-30 09:09:00,61.2,56.3,29.80,West,279,2.3,2.3,84,0.00,OVC,,0.00,520.0,WeatherDisplay:10.37,2016-07-30 16:09:00,
2016-07-30 09:14:00,61.3,55.8,29.80,West,272,4.6,4.6,82,0.00,BKN,,0.00,476.0,WeatherDisplay:10.37,2016-07-30 16:14:00,
2016-07-30 09:19:00,61.5,56.0,29.80,West,262,5.0,5.0,82,0.00,BKN,,0.00,522.0,WeatherDisplay:10.37,2016-07-30 16:19:00,
2016-07-30 09:24:00,62.0,56.4,29.80,West,260,3.5,3.5,82,0.00,BKN,,0.00,531.0,WeatherDisplay:10.37,2016-07-30 16:24:00,
2016-07-30 09:29:00,62.1,55.9,29.80,West,270,5.8,5.8,80,0.00,BKN,,0.00,550.0,WeatherDisplay:10.37,2016-07-30 16:29:00,
2016-07-30 09:34:00,62.1,56.2,29.80,WNW,294,3.5,3.5,81,0.00,OVC,,0.00,577.0,WeatherDisplay:10.37,2016-07-30 16:34:00,
2016-07-30 09:39:00,62.6,56.3,29.80,WSW,248,3.5,3.5,80,0.00,OVC,,0.00,585.0,WeatherDisplay:10.37,2016-07-30 16:39:00,
2016-07-30 09:44:00,62.9,56.3,29.80,West,279,5.8,5.8,79,0.00,OVC,,0.00,596.0,WeatherDisplay:10.37,2016-07-30 16:44:00,
2016-07-30 09:49:00,63.1,56.5,29.80,WNW,288,3.5,3.7,79,0.00,OVC,,0.00,606.0,WeatherDisplay:10.37,2016-07-30 16:49:00,
2016-07-30 09:54:00,63.2,56.2,29.80,WNW,291,5.8,5.8,78,0.00,OVC,,0.00,622.0,WeatherDisplay:10.37,2016-07-30 16:54:00,
2016-07-30 09:59:00,63.2,56.2,29.80,WNW,290,4.6,4.6,78,0.00,OVC,,0.00,636.0,WeatherDisplay:10.37,2016-07-30 16:59:00,
2016-07-30 10:04:00,63.5,56.5,29.80,WNW,303,4.6,4.6,78,0.00,OVC,,0.00,652.0,WeatherDisplay:10.37,2016-07-30 17:04:00,
2016-07-30 10:09:00,63.7,56.4,29.80,West,265,4.0,4.0,77,0.00,OVC,,0.00,664.0,WeatherDisplay:10.37,2016-07-30 17:09:00,
2016-07-30 10:14:00,63.7,56.4,29.80,WSW,248,6.9,6.9,77,0.00,CLR,,0.00,673.0,WeatherDisplay:10.37,2016-07-30 17:14:00,
2016-07-30 10:19:00,64.0,56.3,29.81,WSW,257,5.8,5.8,76,0.00,CLR,,0.00,687.0,WeatherDisplay:10.37,2016-07-30 17:19:00,
2016-07-30 10:24:00,64.5,56.8,29.81,West,280,5.8,5.8,76,0.00,CLR,,0.00,700.0,WeatherDisplay:10.37,2016-07-30 17:24:00,
2016-07-30 10:29:00,64.3,56.6,29.81,WSW,258,5.8,5.8,76,0.00,CLR,,0.00,712.0,WeatherDisplay:10.37,2016-07-30 17:29:00,
2016-07-30 10:34:00,64.5,56.8,29.81,WSW,257,10.4,10.4,76,0.00,CLR,,0.00,722.0,WeatherDisplay:10.37,2016-07-30 17:34:00,
2016-07-30 10:39:00,64.5,56.4,29.81,West,280,6.0,6.0,75,0.00,CLR,,0.00,735.0,WeatherDisplay:10.37,2016-07-30 17:39:00,
2016-07-30 10:44:00,64.7,56.6,29.81,WNW,291,5.8,5.8,75,0.00,CLR,,0.00,747.0,WeatherDisplay:10.37,2016-07-30 17:44:00,
2016-07-30 10:49:00,64.8,56.7,29.81,WNW,301,8.1,8.1,75,0.00,CLR,,0.00,756.0,WeatherDisplay:10.37,2016-07-30 17:49:00,
2016-07-30 10:59:00,65.5,57.0,29.81,WNW,287,6.9,6.9,74,0.00,CLR,,0.00,777.0,WeatherDisplay:10.37,2016-07-30 17:59:00,
2016-07-30 11:04:00,65.6,56.7,29.81,SW,234,6.0,6.0,73,0.00,CLR,,0.00,788.0,WeatherDisplay:10.37,2016-07-30 18:04:00,
2016-07-30 11:09:00,66.0,57.1,29.81,West,263,4.6,4.7,73,0.00,CLR,,0.00,795.0,WeatherDisplay:10.37,2016-07-30 18:09:00,
2016-07-30 11:14:00,66.1,56.8,29.81,WSW,252,6.9,6.9,72,0.00,CLR,,0.00,803.0,WeatherDisplay:10.37,2016-07-30 18:14:00,
2016-07-30 11:19:00,66.8,57.1,29.81,WSW,256,4.6,4.6,71,0.00,CLR,,0.00,814.0,WeatherDisplay:10.37,2016-07-30 18:19:00,
2016-07-30 11:24:00,66.9,56.8,29.81,WNW,296,9.2,9.2,70,0.00,CLR,,0.00,821.0,WeatherDisplay:10.37,2016-07-30 18:24:00,
2016-07-30 11:29:00,67.6,57.5,29.81,WNW,290,4.6,4.6,70,0.00,CLR,,0.00,830.0,WeatherDisplay:10.37,2016-07-30 18:29:00,
2016-07-30 11:34:00,67.9,56.9,29.81,West,263,6.9,6.9,68,0.00,CLR,,0.00,837.0,WeatherDisplay:10.37,2016-07-30 18:34:00,
2016-07-30 11:39:00,67.9,57.4,29.81,West,262,6.9,6.9,69,0.00,CLR,,0.00,844.0,WeatherDisplay:10.37,2016-07-30 18:39:00,
2016-07-30 11:44:00,67.8,57.3,29.81,WNW,284,6.9,6.9,69,0.00,CLR,,0.00,851.0,WeatherDisplay:10.37,2016-07-30 18:44:00,
2016-07-30 11:49:00,67.8,56.9,29.82,WNW,284,6.9,6.9,68,0.00,CLR,,0.00,856.0,WeatherDisplay:10.37,2016-07-30 18:49:00,
2016-07-30 11:54:00,68.1,56.7,29.82,West,275,9.2,9.2,67,0.00,CLR,,0.00,863.0,WeatherDisplay:10.37,2016-07-30 18:54:00,
2016-07-30 11:59:00,68.4,57.0,29.82,West,272,11.5,11.5,67,0.00,CLR,,0.00,867.0,WeatherDisplay:10.37,2016-07-30 18:59:00,
2016-07-30 12:04:00,68.9,57.5,29.82,West,275,10.4,10.4,67,0.00,CLR,,0.00,875.0,WeatherDisplay:10.37,2016-07-30 19:04:00,
2016-07-30 12:09:00,69.6,57.3,29.82,WNW,298,9.2,9.2,65,0.00,CLR,,0.00,879.0,WeatherDisplay:10.37,2016-07-30 19:09:00,
2016-07-30 12:15:00,69.8,57.5,29.82,NW,325,8.1,8.1,65,0.00,CLR,,0.00,886.0,WeatherDisplay:10.37,2016-07-30 19:15:00,
2016-07-30 12:20:00,70.3,57.1,29.82,WSW,253,9.2,9.2,63,0.00,CLR,,0.00,889.0,WeatherDisplay:10.37,2016-07-30 19:20:00,
2016-07-30 12:25:00,70.4,56.8,29.82,WSW,242,10.4,10.4,62,0.00,CLR,,0.00,893.0,WeatherDisplay:10.37,2016-07-30 19:25:00,
2016-07-30 12:30:00,70.1,57.4,29.82,West,279,11.5,11.5,64,0.00,CLR,,0.00,895.0,WeatherDisplay:10.37,2016-07-30 19:30:00,
2016-07-30 12:35:00,70.1,57.4,29.82,WNW,288,11.5,11.5,64,0.00,CLR,,0.00,900.0,WeatherDisplay:10.37,2016-07-30 19:35:00,
2016-07-30 12:40:00,70.1,57.4,29.82,WNW,292,9.2,9.2,64,0.00,CLR,,0.00,902.0,WeatherDisplay:10.37,2016-07-30 19:40:00,
2016-07-30 12:45:00,70.3,57.5,29.82,West,281,11.5,11.5,64,0.00,CLR,,0.00,904.0,WeatherDisplay:10.37,2016-07-30 19:45:00,
2016-07-30 12:50:00,70.4,57.2,29.81,West,259,11.5,11.5,63,0.00,CLR,,0.00,907.0,WeatherDisplay:10.37,2016-07-30 19:50:00,
2016-07-30 12:55:00,70.8,57.6,29.81,West,266,11.5,11.5,63,0.00,CLR,,0.00,907.0,WeatherDisplay:10.37,2016-07-30 19:55:00,
2016-07-30 13:00:00,70.8,57.1,29.81,West,260,11.5,11.5,62,0.00,CLR,,0.00,911.0,WeatherDisplay:10.37,2016-07-30 20:00:00,
2016-07-30 13:05:00,71.3,57.6,29.81,WNW,283,5.8,5.8,62,0.00,CLR,,0.00,911.0,WeatherDisplay:10.37,2016-07-30 20:05:00,
2016-07-30 13:10:00,72.0,57.4,29.81,West,278,10.4,10.4,60,0.00,CLR,,0.00,911.0,WeatherDisplay:10.37,2016-07-30 20:10:00,
2016-07-30 13:15:00,72.1,57.4,29.81,WSW,242,9.2,9.2,60,0.00,CLR,,0.00,911.0,WeatherDisplay:10.37,2016-07-30 20:15:00,
2016-07-30 13:20:00,72.8,57.6,29.80,WNW,286,8.1,8.1,59,0.00,CLR,,0.00,907.0,WeatherDisplay:10.37,2016-07-30 20:20:00,
2016-07-30 13:25:00,72.8,57.6,29.80,West,279,12.7,12.7,59,0.00,CLR,,0.00,909.0,WeatherDisplay:10.37,2016-07-30 20:25:00,
2016-07-30 13:30:00,73.0,57.3,29.80,West,275,15.0,15.0,58,0.00,CLR,,0.00,905.0,WeatherDisplay:10.37,2016-07-30 20:30:00,
2016-07-30 13:35:00,73.3,57.6,29.80,West,274,12.7,12.7,58,0.00,CLR,,0.00,905.0,WeatherDisplay:10.37,2016-07-30 20:35:00,
2016-07-30 13:40:00,73.2,57.1,29.80,West,271,10.4,10.4,57,0.00,CLR,,0.00,904.0,WeatherDisplay:10.37,2016-07-30 20:40:00,
2016-07-30 13:45:00,73.7,57.0,29.80,NW,304,10.4,10.4,56,0.00,CLR,,0.00,900.0,WeatherDisplay:10.37,2016-07-30 20:45:00,
2016-07-30 13:50:00,73.9,57.2,29.80,West,274,10.4,10.4,56,0.00,CLR,,0.00,898.0,WeatherDisplay:10.37,2016-07-30 20:50:00,
2016-07-30 13:55:00,73.9,57.2,29.80,WSW,240,12.0,12.0,56,0.00,CLR,,0.00,896.0,WeatherDisplay:10.37,2016-07-30 20:55:00,
2016-07-30 14:00:00,73.5,56.8,29.80,NW,310,12.7,12.7,56,0.00,CLR,,0.00,891.0,WeatherDisplay:10.37,2016-07-30 21:00:00,
2016-07-30 14:05:00,73.5,56.8,29.80,West,279,11.5,11.5,56,0.00,CLR,,0.00,886.0,WeatherDisplay:10.37,2016-07-30 21:05:00,
2016-07-30 14:10:00,73.7,57.0,29.80,WNW,294,15.0,15.0,56,0.00,CLR,,0.00,881.0,WeatherDisplay:10.37,2016-07-30 21:10:00,
2016-07-30 14:15:00,74.0,56.8,29.80,West,278,15.0,15.0,55,0.00,CLR,,0.00,877.0,WeatherDisplay:10.37,2016-07-30 21:15:00,
2016-07-30 14:20:00,73.7,57.5,29.80,NW,304,10.4,10.4,57,0.00,CLR,,0.00,868.0,WeatherDisplay:10.37,2016-07-30 21:20:00,
2016-07-30 14:25:00,73.5,56.3,29.80,WNW,300,11.5,11.5,55,0.00,CLR,,0.00,863.0,WeatherDisplay:10.37,2016-07-30 21:25:00,
2016-07-30 14:30:00,74.2,56.5,29.80,NNW,341,9.2,9.2,54,0.00,CLR,,0.00,860.0,WeatherDisplay:10.37,2016-07-30 21:30:00,
2016-07-30 14:35:00,74.6,56.3,29.80,WNW,303,12.7,12.7,53,0.00,CLR,,0.00,854.0,WeatherDisplay:10.37,2016-07-30 21:35:00,
2016-07-30 14:40:00,74.7,56.4,29.80,NW,306,6.9,6.9,53,0.00,CLR,,0.00,849.0,WeatherDisplay:10.37,2016-07-30 21:40:00,
2016-07-30 14:45:00,75.1,55.7,29.80,West,277,11.5,11.5,51,0.00,CLR,,0.00,842.0,WeatherDisplay:10.37,2016-07-30 21:45:00,
2016-07-30 14:50:00,74.4,56.2,29.80,WNW,286,8.1,8.1,53,0.00,CLR,,0.00,831.0,WeatherDisplay:10.37,2016-07-30 21:50:00,
2016-07-30 14:55:00,75.1,55.7,29.80,WNW,290,13.8,13.8,51,0.00,CLR,,0.00,828.0,WeatherDisplay:10.37,2016-07-30 21:55:00,
2016-07-30 15:00:00,74.7,56.4,29.80,West,277,11.5,11.5,53,0.00,CLR,,0.00,817.0,WeatherDisplay:10.37,2016-07-30 22:00:00,
2016-07-30 15:05:00,75.1,56.3,29.79,NW,323,9.2,9.2,52,0.00,CLR,,0.00,809.0,WeatherDisplay:10.37,2016-07-30 22:05:00,
2016-07-30 15:10:00,74.9,56.1,29.79,NNW,348,10.4,10.4,52,0.00,CLR,,0.00,802.0,WeatherDisplay:10.37,2016-07-30 22:10:00,
2016-07-30 15:15:00,74.9,56.1,29.79,West,272,4.6,4.6,52,0.00,CLR,,0.00,791.0,WeatherDisplay:10.37,2016-07-30 22:15:00,
2016-07-30 15:20:00,75.3,56.5,29.79,NNW,340,9.2,9.2,52,0.00,CLR,,0.00,782.0,WeatherDisplay:10.37,2016-07-30 22:20:00,
2016-07-30 15:25:00,75.1,56.3,29.79,NW,306,6.9,6.9,52,0.00,CLR,,0.00,773.0,WeatherDisplay:10.37,2016-07-30 22:25:00,
2016-07-30 15:30:00,74.4,55.6,29.79,NNW,335,10.4,10.4,52,0.00,CLR,,0.00,763.0,WeatherDisplay:10.37,2016-07-30 22:30:00,
2016-07-30 15:35:00,74.2,56.0,29.79,WNW,298,10.4,10.4,53,0.00,CLR,,0.00,752.0,WeatherDisplay:10.37,2016-07-30 22:35:00,
2016-07-30 15:40:00,74.4,55.6,29.79,WSW,243,11.5,11.5,52,0.00,CLR,,0.00,742.0,WeatherDisplay:10.37,2016-07-30 22:40:00,
2016-07-30 15:45:00,74.6,56.3,29.79,West,270,11.5,11.5,53,0.00,CLR,,0.00,733.0,WeatherDisplay:10.37,2016-07-30 22:45:00,
2016-07-30 15:50:00,74.7,55.9,29.79,West,274,8.1,8.1,52,0.00,CLR,,0.00,722.0,WeatherDisplay:10.37,2016-07-30 22:50:00,
2016-07-30 15:55:00,75.6,56.7,29.79,NW,305,4.6,4.6,52,0.00,CLR,,0.00,710.0,WeatherDisplay:10.37,2016-07-30 22:55:00,
2016-07-30 16:00:00,76.1,56.1,29.79,WNW,290,6.0,6.0,50,0.00,CLR,,0.00,701.0,WeatherDisplay:10.37,2016-07-30 23:00:00,
2016-07-30 16:05:00,75.6,56.7,29.79,West,259,11.5,11.5,52,0.00,CLR,,0.00,689.0,WeatherDisplay:10.37,2016-07-30 23:05:00,
2016-07-30 16:10:00,75.6,56.2,29.79,WNW,299,8.1,8.1,51,0.00,CLR,,0.00,677.0,WeatherDisplay:10.37,2016-07-30 23:10:00,
2016-07-30 16:15:00,75.3,55.9,29.79,WSW,253,8.1,8.1,51,0.00,CLR,,0.00,663.0,WeatherDisplay:10.37,2016-07-30 23:15:00,
2016-07-30 16:20:00,74.9,56.1,29.78,North,11,10.4,10.4,52,0.00,CLR,,0.00,652.0,WeatherDisplay:10.37,2016-07-30 23:20:00,
2016-07-30 16:25:00,75.3,55.9,29.78,WNW,294,11.5,11.5,51,0.00,CLR,,0.00,640.0,WeatherDisplay:10.37,2016-07-30 23:25:00,
2016-07-30 16:30:00,74.7,55.9,29.78,West,273,11.5,11.5,52,0.00,CLR,,0.00,628.0,WeatherDisplay:10.37,2016-07-30 23:30:00,
2016-07-30 16:35:00,74.4,55.6,29.78,WNW,297,11.5,11.5,52,0.00,CLR,,0.00,613.0,WeatherDisplay:10.37,2016-07-30 23:35:00,
2016-07-30 16:40:00,74.6,55.8,29.78,West,259,9.2,9.2,52,0.00,CLR,,0.00,599.0,WeatherDisplay:10.37,2016-07-30 23:40:00,
2016-07-30 16:45:00,75.1,55.7,29.78,West,281,5.8,5.8,51,0.00,CLR,,0.00,582.0,WeatherDisplay:10.37,2016-07-30 23:45:00,
2016-07-30 16:50:00,75.3,54.8,29.78,NW,309,10.4,10.4,49,0.00,CLR,,0.00,571.0,WeatherDisplay:10.37,2016-07-30 23:50:00,
2016-07-30 16:55:00,75.3,55.9,29.78,WNW,303,10.0,10.0,51,0.00,CLR,,0.00,559.0,WeatherDisplay:10.37,2016-07-30 23:55:00,
2016-07-30 17:00:00,75.1,56.3,29.78,NNE,21,12.7,12.7,52,0.00,CLR,,0.00,543.0,WeatherDisplay:10.37,2016-07-31 00:00:00,
2016-07-30 17:05:00,75.3,55.9,29.78,NNW,327,9.2,9.2,51,0.00,CLR,,0.00,527.0,WeatherDisplay:10.37,2016-07-31 00:05:00,
2016-07-30 17:10:00,74.9,55.6,29.78,WSW,245,9.2,9.2,51,0.00,CLR,,0.00,515.0,WeatherDisplay:10.37,2016-07-31 00:10:00,
2016-07-30 17:15:00,74.9,55.6,29.78,West,267,5.8,5.8,51,0.00,CLR,,0.00,499.0,WeatherDisplay:10.37,2016-07-31 00:15:00,
2016-07-30 17:20:00,74.7,55.9,29.78,West,281,6.9,6.9,52,0.00,CLR,,0.00,485.0,WeatherDisplay:10.37,2016-07-31 00:20:00,
2016-07-30 17:25:00,74.7,55.4,29.78,WNW,284,5.8,5.8,51,0.00,CLR,,0.00,469.0,WeatherDisplay:10.37,2016-07-31 00:25:00,
2016-07-30 17:30:00,74.2,55.4,29.78,West,279,10.4,10.4,52,0.00,CLR,,0.00,455.0,WeatherDisplay:10.37,2016-07-31 00:30:00,
2016-07-30 17:35:00,73.9,55.7,29.78,WNW,284,9.2,9.2,53,0.00,CLR,,0.00,441.0,WeatherDisplay:10.37,2016-07-31 00:35:00,
2016-07-30 17:40:00,74.2,55.4,29.78,WNW,282,6.9,6.9,52,0.00,CLR,,0.00,425.0,WeatherDisplay:10.37,2016-07-31 00:40:00,
2016-07-30 17:45:00,74.2,55.4,29.78,West,277,11.5,11.5,52,0.00,CLR,,0.00,411.0,WeatherDisplay:10.37,2016-07-31 00:45:00,
2016-07-30 17:50:00,73.7,56.0,29.77,WNW,288,9.2,9.2,54,0.00,CLR,,0.00,394.0,WeatherDisplay:10.37,2016-07-31 00:50:00,
2016-07-30 17:55:00,73.2,55.6,29.77,WNW,286,8.1,8.1,54,0.00,CLR,,0.00,380.0,WeatherDisplay:10.37,2016-07-31 00:55:00,
2016-07-30 18:00:00,73.0,55.9,29.77,WNW,298,9.2,9.2,55,0.00,CLR,,0.00,362.0,WeatherDisplay:10.37,2016-07-31 01:00:00,
2016-07-30 18:05:00,73.2,55.6,29.77,WNW,284,11.5,11.5,54,0.00,CLR,,0.00,346.0,WeatherDisplay:10.37,2016-07-31 01:05:00,
2016-07-30 18:10:00,73.2,56.1,29.77,West,265,6.9,6.9,55,0.00,CLR,,0.00,332.0,WeatherDisplay:10.37,2016-07-31 01:10:00,
2016-07-30 18:15:00,72.3,55.7,29.77,West,267,6.9,6.9,56,0.00,CLR,,0.00,316.0,WeatherDisplay:10.37,2016-07-31 01:15:00,
2016-07-30 18:20:00,72.1,56.0,29.78,NNE,24,10.4,10.4,57,0.00,CLR,,0.00,301.0,WeatherDisplay:10.37,2016-07-31 01:20:00,
2016-07-30 18:25:00,71.8,56.2,29.78,WNW,303,11.5,11.5,58,0.00,CLR,,0.00,285.0,WeatherDisplay:10.37,2016-07-31 01:25:00,
2016-07-30 18:30:00,71.3,55.8,29.78,NNW,342,11.5,11.5,58,0.00,CLR,,0.00,269.0,WeatherDisplay:10.37,2016-07-31 01:30:00,
2016-07-30 18:35:00,70.8,55.8,29.78,WNW,283,11.5,11.5,59,0.00,CLR,,0.00,253.0,WeatherDisplay:10.37,2016-07-31 01:35:00,
2016-07-30 18:40:00,70.4,55.8,29.78,WSW,251,11.5,11.5,60,0.00,CLR,,0.00,236.0,WeatherDisplay:10.37,2016-07-31 01:40:00,
2016-07-30 18:45:00,70.3,55.8,29.78,West,272,6.9,6.9,60,0.00,CLR,,0.00,223.0,WeatherDisplay:10.37,2016-07-31 01:45:00,
2016-07-30 18:50:00,70.3,55.8,29.77,West,264,9.2,9.2,60,0.00,CLR,,0.00,207.0,WeatherDisplay:10.37,2016-07-31 01:50:00,
2016-07-30 18:55:00,70.1,55.6,29.77,WSW,257,6.9,6.9,60,0.00,CLR,,0.00,192.0,WeatherDisplay:10.37,2016-07-31 01:55:00,
2016-07-30 19:00:00,69.9,55.4,29.77,WSW,251,6.9,6.9,60,0.00,CLR,,0.00,172.0,WeatherDisplay:10.37,2016-07-31 02:00:00,
2016-07-30 19:05:00,70.1,55.6,29.78,West,279,3.5,3.5,60,0.00,CLR,,0.00,153.0,WeatherDisplay:10.37,2016-07-31 02:05:00,
2016-07-30 19:10:00,70.4,55.4,29.78,WNW,282,4.6,4.6,59,0.00,CLR,,0.00,134.0,WeatherDisplay:10.37,2016-07-31 02:10:00,
2016-07-30 19:15:00,70.3,55.3,29.78,WNW,295,5.8,5.8,59,0.00,CLR,,0.00,114.0,WeatherDisplay:10.37,2016-07-31 02:15:00,
2016-07-30 19:20:00,69.8,55.3,29.77,WNW,294,4.0,4.0,60,0.00,CLR,,0.00,100.0,WeatherDisplay:10.37,2016-07-31 02:20:00,
2016-07-30 19:25:00,69.8,54.4,29.77,WNW,296,4.6,4.6,58,0.00,CLR,,0.00,84.0,WeatherDisplay:10.37,2016-07-31 02:25:00,
2016-07-30 19:30:00,69.4,54.4,29.77,West,268,4.6,4.6,59,0.00,CLR,,0.00,69.0,WeatherDisplay:10.37,2016-07-31 02:30:00,
2016-07-30 19:35:00,69.1,54.6,29.77,NW,311,3.5,3.5,60,0.00,CLR,,0.00,54.0,WeatherDisplay:10.37,2016-07-31 02:35:00,
2016-07-30 19:40:00,69.1,54.6,29.77,NW,319,4.6,4.6,60,0.00,CLR,,0.00,42.0,WeatherDisplay:10.37,2016-07-31 02:40:00,
2016-07-30 19:45:00,68.9,54.9,29.77,WNW,303,3.5,3.5,61,0.00,CLR,,0.00,32.0,WeatherDisplay:10.37,2016-07-31 02:45:00,
2016-07-30 19:50:00,68.8,54.3,29.77,WNW,299,3.5,3.6,60,0.00,CLR,,0.00,23.0,WeatherDisplay:10.37,2016-07-31 02:50:00,
2016-07-30 19:55:00,68.3,54.3,29.77,West,281,5.8,5.8,61,0.00,CLR,,0.00,16.0,WeatherDisplay:10.37,2016-07-31 02:55:00,
2016-07-30 20:00:00,67.9,54.4,29.77,West,261,3.5,3.5,62,0.00,CLR,,0.00,12.0,WeatherDisplay:10.37,2016-07-31 03:00:00,
2016-07-30 20:05:00,67.4,54.4,29.77,NW,315,3.5,3.5,63,0.00,CLR,,0.00,11.0,WeatherDisplay:10.37,2016-07-31 03:05:00,
2016-07-30 20:10:00,66.9,53.9,29.77,WNW,298,4.6,4.6,63,0.00,CLR,,0.00,9.0,WeatherDisplay:10.37,2016-07-31 03:10:00,
2016-07-30 20:15:00,66.6,54.0,29.77,NNW,345,4.6,4.6,64,0.00,CLR,,0.00,5.0,WeatherDisplay:10.37,2016-07-31 03:15:00,
2016-07-30 20:20:00,66.1,54.0,29.78,WNW,283,2.3,2.3,65,0.00,CLR,,0.00,0.0,WeatherDisplay:10.37,2016-07-31 03:20:00,
2016-07-30 20:25:00,65.8,54.1,29.78,West,279,4.6,4.6,66,0.00,CLR,,0.00,0.0,WeatherDisplay:10.37,2016-07-31 03:25:00,
2016-07-30 20:30:00,65.5,54.2,29.78,West,273,6.9,6.9,67,0.00,CLR,,0.00,0.0,WeatherDisplay:10.37,2016-07-31 03:30:00,
2016-07-30 20:35:00,65.0,54.2,29.78,West,278,5.8,5.8,68,0.00,CLR,,0.00,0.0,WeatherDisplay:10.37,2016-07-31 03:35:00,
2016-07-30 20:40:00,64.5,54.1,29.78,NW,305,5.0,5.0,69,0.00,CLR,,0.00,0.0,WeatherDisplay:10.37,2016-07-31 03:40:00,
2016-07-30 20:45:00,64.0,54.0,29.78,West,264,4.6,4.6,70,0.00,CLR,,0.00,0.0,WeatherDisplay:10.37,2016-07-31 03:45:00,
2016-07-30 20:50:00,63.7,53.7,29.78,West,269,6.9,6.9,70,0.00,CLR,,0.00,0.0,WeatherDisplay:10.37,2016-07-31 03:50:00,
2016-07-30 20:55:00,63.2,54.0,29.78,WNW,283,6.9,6.9,72,0.00,CLR,,0.00,0.0,WeatherDisplay:10.37,2016-07-31 03:55:00,
2016-07-30 21:00:00,62.9,54.1,29.79,WNW,289,5.8,5.8,73,0.00,CLR,,0.00,0.0,WeatherDisplay:10.37,2016-07-31 04:00:00,
2016-07-30 21:05:00,62.6,53.8,29.79,West,277,5.0,5.0,73,0.00,CLR,,0.00,0.0,WeatherDisplay:10.37,2016-07-31 04:05:00,
2016-07-30 21:11:00,62.4,54.0,29.79,WNW,300,4.6,4.6,74,0.00,CLR,,0.00,0.0,WeatherDisplay:10.37,2016-07-31 04:11:00,
2016-07-30 21:16:00,62.3,53.9,29.80,WNW,299,4.6,4.6,74,0.00,CLR,,0.00,0.0,WeatherDisplay:10.37,2016-07-31 04:16:00,
2016-07-30 21:21:00,62.1,54.1,29.80,WNW,293,4.6,4.6,75,0.00,CLR,,0.00,0.0,WeatherDisplay:10.37,2016-07-31 04:21:00,
2016-07-30 21:26:00,61.8,53.8,29.80,West,277,4.6,4.6,75,0.00,CLR,,0.00,0.0,WeatherDisplay:10.37,2016-07-31 04:26:00,
2016-07-30 21:31:00,61.6,53.6,29.81,West,269,3.5,3.5,75,0.00,CLR,,0.00,0.0,WeatherDisplay:10.37,2016-07-31 04:31:00,
2016-07-30 21:36:00,61.5,53.9,29.81,NW,305,3.5,3.5,76,0.00,CLR,,0.00,0.0,WeatherDisplay:10.37,2016-07-31 04:36:00,
2016-07-30 21:41:00,61.3,54.0,29.81,WNW,298,3.5,3.5,77,0.00,CLR,,0.00,0.0,WeatherDisplay:10.37,2016-07-31 04:41:00,